createdAt,value
2019-06-15T00:00:16.704Z,16.70
2019-06-15T00:02:49.054Z,16.70
2019-06-15T00:05:19.846Z,16.70
2019-06-15T00:07:50.565Z,16.70
2019-06-15T00:10:24.317Z,16.60
2019-06-15T00:12:55.541Z,16.50
2019-06-15T00:15:26.262Z,16.50
2019-06-15T00:17:56.959Z,16.40
2019-06-15T00:20:27.634Z,16.40
2019-06-15T00:22:58.265Z,16.40
2019-06-15T00:25:28.987Z,16.30
2019-06-15T00:28:00.146Z,16.30
2019-06-15T00:30:30.808Z,16.30
2019-06-15T00:33:01.568Z,16.30
2019-06-15T00:35:32.427Z,16.20
2019-06-15T00:38:03.193Z,16.20
2019-06-15T00:40:33.793Z,16.20
2019-06-15T00:43:04.338Z,16.20
2019-06-15T00:45:35.098Z,16.10
2019-06-15T00:48:06.053Z,16.10
2019-06-15T00:50:36.541Z,16.10
2019-06-15T00:53:07.309Z,16.10
2019-06-15T00:55:37.907Z,16.00
2019-06-15T00:58:09.002Z,16.00
2019-06-15T01:00:39.674Z,15.90
2019-06-15T01:03:11.206Z,15.90
2019-06-15T01:05:42.090Z,15.90
2019-06-15T01:08:12.942Z,15.80
2019-06-15T01:10:43.766Z,15.80
2019-06-15T01:13:14.618Z,15.80
2019-06-15T01:15:45.396Z,15.80
2019-06-15T01:18:16.093Z,15.80
2019-06-15T01:20:47.490Z,15.70
2019-06-15T01:23:18.258Z,15.70
2019-06-15T01:25:49.094Z,15.70
2019-06-15T01:28:19.765Z,15.70
2019-06-15T01:30:50.465Z,15.70
2019-06-15T01:33:21.106Z,15.70
2019-06-15T01:35:51.943Z,15.60
2019-06-15T01:38:22.990Z,15.60
2019-06-15T01:40:53.867Z,15.60
2019-06-15T01:43:25.605Z,15.50
2019-06-15T01:45:56.454Z,15.50
2019-06-15T01:48:27.291Z,15.50
2019-06-15T01:50:58.078Z,15.40
2019-06-15T01:53:28.701Z,15.40
2019-06-15T01:55:59.453Z,15.40
2019-06-15T01:58:30.081Z,15.40
2019-06-15T02:01:00.833Z,15.30
2019-06-15T02:03:31.771Z,15.30
2019-06-15T02:06:02.204Z,15.20
2019-06-15T02:08:33.062Z,15.10
2019-06-15T02:11:03.652Z,15.10
2019-06-15T02:13:34.206Z,15.10
2019-06-15T02:16:05.115Z,15.00
2019-06-15T02:18:35.801Z,15.00
2019-06-15T02:21:06.374Z,15.00
2019-06-15T02:23:36.935Z,14.90
2019-06-15T02:26:07.654Z,14.90
2019-06-15T02:28:38.537Z,14.90
2019-06-15T02:31:10.565Z,14.90
2019-06-15T02:33:41.475Z,14.90
2019-06-15T02:36:14.207Z,14.90
2019-06-15T02:38:44.689Z,15.00
2019-06-15T02:41:15.439Z,15.00
2019-06-15T02:43:46.214Z,15.00
2019-06-15T02:46:17.114Z,15.00
2019-06-15T02:48:47.763Z,14.90
2019-06-15T02:51:18.523Z,14.90
2019-06-15T02:53:49.334Z,14.90
2019-06-15T02:56:19.939Z,14.90
2019-06-15T02:58:50.541Z,14.90
2019-06-15T03:01:20.978Z,14.90
2019-06-15T03:03:51.604Z,14.90
2019-06-15T03:06:22.470Z,15.00
2019-06-15T03:08:53.440Z,15.00
2019-06-15T03:11:24.026Z,15.00
2019-06-15T03:13:56.066Z,15.00
2019-06-15T03:16:26.849Z,15.00
2019-06-15T03:18:57.504Z,15.10
2019-06-15T03:21:29.438Z,15.10
2019-06-15T03:26:20.093Z,15.10
2019-06-15T03:28:51.213Z,15.20
2019-06-15T03:31:21.858Z,15.20
2019-06-15T03:33:52.892Z,15.20
2019-06-15T03:36:23.771Z,15.20
2019-06-15T03:38:54.333Z,15.30
2019-06-15T03:41:25.413Z,15.30
2019-06-15T03:43:56.236Z,15.30
2019-06-15T03:46:27.490Z,15.40
2019-06-15T03:48:58.521Z,15.40
2019-06-15T03:51:29.406Z,15.40
2019-06-15T03:54:00.093Z,15.50
2019-06-15T03:56:30.929Z,15.50
2019-06-15T03:59:01.874Z,15.60
2019-06-15T04:01:38.573Z,15.60
2019-06-15T04:04:09.066Z,15.60
2019-06-15T04:06:39.954Z,15.70
2019-06-15T04:09:10.753Z,15.80
2019-06-15T04:11:41.359Z,15.90
2019-06-15T04:14:11.929Z,16.00
2019-06-15T04:16:42.650Z,16.10
2019-06-15T04:19:13.486Z,16.30
2019-06-15T04:21:44.351Z,16.40
2019-06-15T04:24:14.937Z,16.50
2019-06-15T04:26:45.519Z,16.50
2019-06-15T04:29:16.526Z,16.60
2019-06-15T04:31:47.141Z,16.70
2019-06-15T04:34:17.923Z,16.70
2019-06-15T04:36:48.674Z,16.80
2019-06-15T04:39:19.557Z,16.80
2019-06-15T04:41:50.482Z,16.80
2019-06-15T04:44:22.510Z,16.90
2019-06-15T04:46:53.632Z,16.90
2019-06-15T04:49:24.460Z,16.90
2019-06-15T04:51:55.134Z,16.90
2019-06-15T04:54:25.657Z,16.90
2019-06-15T04:56:56.430Z,16.90
2019-06-15T04:59:27.001Z,16.90
2019-06-15T05:01:57.399Z,17.00
2019-06-15T05:04:28.506Z,17.00
2019-06-15T05:06:59.213Z,17.10
2019-06-15T05:09:29.925Z,17.10
2019-06-15T05:12:00.790Z,17.20
2019-06-15T05:14:31.597Z,17.20
2019-06-15T05:17:02.368Z,17.20
2019-06-15T05:19:33.314Z,17.20
2019-06-15T05:22:04.350Z,17.10
2019-06-15T05:24:35.269Z,17.10
2019-06-15T05:27:06.780Z,17.10
2019-06-15T05:29:37.361Z,17.10
2019-06-15T05:32:08.098Z,17.10
2019-06-15T05:34:38.902Z,17.20
2019-06-15T05:37:09.582Z,17.20
2019-06-15T05:39:40.045Z,17.20
2019-06-15T05:42:10.830Z,17.20
2019-06-15T05:44:41.638Z,17.30
2019-06-15T05:47:12.789Z,17.30
2019-06-15T05:49:43.849Z,17.30
2019-06-15T05:52:14.712Z,17.40
2019-06-15T05:54:45.373Z,17.40
2019-06-15T05:57:21.612Z,17.40
2019-06-15T05:59:48.637Z,17.50
2019-06-15T06:02:23.905Z,17.50
2019-06-15T06:04:52.717Z,17.50
2019-06-15T06:07:23.517Z,17.50
2019-06-15T06:09:54.321Z,17.50
2019-06-15T06:12:25.157Z,17.50
2019-06-15T06:14:55.989Z,17.50
2019-06-15T06:17:26.643Z,17.60
2019-06-15T06:19:57.673Z,17.60
2019-06-15T06:22:28.566Z,17.60
2019-06-15T06:24:59.342Z,17.70
2019-06-15T06:27:36.525Z,17.70
2019-06-15T06:30:02.274Z,17.80
2019-06-15T06:32:33.094Z,17.90
2019-06-15T06:35:03.811Z,18.00
2019-06-15T06:37:34.472Z,18.10
2019-06-15T06:40:06.669Z,18.20
2019-06-15T06:42:37.353Z,18.30
2019-06-15T06:45:09.592Z,18.30
2019-06-15T06:47:40.345Z,18.40
2019-06-15T06:50:11.677Z,18.50
2019-06-15T06:52:43.060Z,18.60
2019-06-15T06:55:13.962Z,18.70
2019-06-15T06:57:52.664Z,18.80
2019-06-15T07:00:16.996Z,18.90
2019-06-15T07:02:47.506Z,19.00
2019-06-15T07:05:18.279Z,19.10
2019-06-15T07:07:49.093Z,19.20
2019-06-15T07:10:20.072Z,19.30
2019-06-15T07:12:50.558Z,19.50
2019-06-15T07:15:21.313Z,19.60
2019-06-15T07:17:51.941Z,19.70
2019-06-15T07:20:22.676Z,19.80
2019-06-15T07:22:53.536Z,19.90
2019-06-15T07:25:24.191Z,20.00
2019-06-15T07:28:07.536Z,20.20
2019-06-15T07:30:27.960Z,20.30
2019-06-15T07:32:58.545Z,20.40
2019-06-15T07:35:31.134Z,20.60
2019-06-15T07:38:01.921Z,20.70
2019-06-15T07:40:32.569Z,20.80
2019-06-15T07:43:03.331Z,21.00
2019-06-15T07:45:34.131Z,21.10
2019-06-15T07:48:04.834Z,21.30
2019-06-15T07:50:35.580Z,21.40
2019-06-15T07:53:06.329Z,21.60
2019-06-15T07:55:36.965Z,21.70
2019-06-15T07:58:23.395Z,21.90
2019-06-15T08:00:39.938Z,22.00
2019-06-15T08:03:10.652Z,22.20
2019-06-15T08:05:41.197Z,22.20
2019-06-15T08:08:11.973Z,22.40
2019-06-15T08:10:42.572Z,22.50
2019-06-15T08:13:13.373Z,22.60
2019-06-15T08:15:44.162Z,22.80
2019-06-15T08:18:15.018Z,23.00
2019-06-15T08:20:45.627Z,23.20
2019-06-15T08:23:16.384Z,23.40
2019-06-15T08:25:46.978Z,23.60
2019-06-15T08:28:17.779Z,23.80
2019-06-15T08:30:49.237Z,24.00
2019-06-15T08:33:19.923Z,24.10
2019-06-15T08:35:50.755Z,24.30
2019-06-15T08:38:21.517Z,24.40
2019-06-15T08:40:52.317Z,24.60
2019-06-15T08:43:23.078Z,24.80
2019-06-15T08:45:53.911Z,24.90
2019-06-15T08:48:25.786Z,25.10
2019-06-15T08:50:56.914Z,25.20
2019-06-15T08:53:27.429Z,25.30
2019-06-15T08:55:58.126Z,25.50
2019-06-15T08:58:28.793Z,25.70
2019-06-15T09:00:59.384Z,25.70
2019-06-15T09:03:30.118Z,25.80
2019-06-15T09:06:00.827Z,25.90
2019-06-15T09:08:31.650Z,26.10
2019-06-15T09:11:02.067Z,26.20
2019-06-15T09:13:32.799Z,26.30
2019-06-15T09:16:03.497Z,26.40
2019-06-15T09:18:34.565Z,26.50
2019-06-15T09:21:05.364Z,26.70
2019-06-15T09:23:36.177Z,26.80
2019-06-15T09:26:07.073Z,27.00
2019-06-15T09:28:37.842Z,27.20
2019-06-15T09:31:08.445Z,27.30
2019-06-15T09:33:39.251Z,27.40
2019-06-15T09:36:09.852Z,27.60
2019-06-15T09:38:40.575Z,27.80
2019-06-15T09:41:11.366Z,27.90
2019-06-15T09:43:42.271Z,28.10
2019-06-15T09:46:13.018Z,28.20
2019-06-15T09:48:43.979Z,28.30
2019-06-15T09:51:14.810Z,28.50
2019-06-15T09:53:45.430Z,28.50
2019-06-15T09:56:16.184Z,28.60
2019-06-15T09:58:46.981Z,28.80
2019-06-15T10:01:17.837Z,28.80
2019-06-15T10:03:48.337Z,29.00
2019-06-15T10:06:19.081Z,29.20
2019-06-15T10:08:50.024Z,29.20
2019-06-15T10:11:20.623Z,29.40
2019-06-15T10:13:51.258Z,29.60
2019-06-15T10:16:22.204Z,29.80
2019-06-15T10:18:52.857Z,29.90
2019-06-15T10:21:23.558Z,30.00
2019-06-15T10:23:54.240Z,30.10
2019-06-15T10:26:25.062Z,30.20
2019-06-15T10:28:55.898Z,30.40
2019-06-15T10:31:28.231Z,30.50
2019-06-15T10:33:59.042Z,30.60
2019-06-15T10:36:29.851Z,30.70
2019-06-15T10:39:00.601Z,30.60
2019-06-15T10:41:33.055Z,30.80
2019-06-15T10:44:03.653Z,30.80
2019-06-15T10:46:35.330Z,30.80
2019-06-15T10:49:05.906Z,30.90
2019-06-15T10:51:36.482Z,30.90
2019-06-15T10:54:08.160Z,30.90
2019-06-15T10:56:38.805Z,30.90
2019-06-15T10:59:09.831Z,31.00
2019-06-15T11:01:40.469Z,31.20
2019-06-15T11:04:11.234Z,31.30
2019-06-15T11:06:43.262Z,31.30
2019-06-15T11:09:14.117Z,31.30
2019-06-15T11:11:45.100Z,31.50
2019-06-15T11:14:16.985Z,31.60
2019-06-15T11:16:49.344Z,31.60
2019-06-15T11:19:20.151Z,31.60
2019-06-15T11:21:51.077Z,31.50
2019-06-15T11:24:21.960Z,31.60
2019-06-15T11:26:52.735Z,31.80
2019-06-15T11:29:23.390Z,31.90
2019-06-15T11:31:54.006Z,31.90
2019-06-15T11:34:24.871Z,31.90
2019-06-15T11:36:55.566Z,31.90
2019-06-15T11:39:26.301Z,32.10
2019-06-15T11:41:56.958Z,32.10
2019-06-15T11:44:28.613Z,32.20
2019-06-15T11:46:59.417Z,32.10
2019-06-15T11:49:30.154Z,32.10
2019-06-15T11:52:01.130Z,32.10
2019-06-15T11:54:32.233Z,31.80
2019-06-15T11:57:03.079Z,31.80
2019-06-15T11:59:33.725Z,31.80
2019-06-15T12:02:04.561Z,31.80
2019-06-15T12:04:35.494Z,31.70
2019-06-15T12:07:06.454Z,31.60
2019-06-15T12:09:37.123Z,31.60
2019-06-15T12:12:07.781Z,31.60
2019-06-15T12:14:38.633Z,31.40
2019-06-15T12:17:09.278Z,31.40
2019-06-15T12:19:40.356Z,31.40
2019-06-15T12:22:10.797Z,31.40
2019-06-15T12:24:41.722Z,31.30
2019-06-15T12:27:12.362Z,31.20
2019-06-15T12:29:43.045Z,31.10
2019-06-15T12:32:13.998Z,31.00
2019-06-15T12:34:44.766Z,31.00
2019-06-15T12:37:15.543Z,30.90
2019-06-15T12:39:46.158Z,30.70
2019-06-15T12:42:16.918Z,30.60
2019-06-15T12:44:47.757Z,30.40
2019-06-15T12:47:18.373Z,30.40
2019-06-15T12:49:48.956Z,30.40
2019-06-15T12:52:19.510Z,30.30
2019-06-15T12:54:50.490Z,30.20
2019-06-15T12:57:21.142Z,30.20
2019-06-15T12:59:51.843Z,30.00
2019-06-15T13:02:22.443Z,29.90
2019-06-15T13:04:53.218Z,29.80
2019-06-15T13:07:23.813Z,29.80
2019-06-15T13:09:54.362Z,29.60
2019-06-15T13:12:25.114Z,29.50
2019-06-15T13:14:55.963Z,29.40
2019-06-15T13:17:26.645Z,29.30
2019-06-15T13:19:57.419Z,29.40
2019-06-15T13:22:28.199Z,29.30
2019-06-15T13:24:59.030Z,29.30
2019-06-15T13:27:29.951Z,29.30
2019-06-15T13:30:00.691Z,29.20
2019-06-15T13:32:31.510Z,29.20
2019-06-15T13:35:02.414Z,29.20
2019-06-15T13:37:41.984Z,29.10
2019-06-15T13:40:06.595Z,29.00
2019-06-15T13:42:37.363Z,29.00
2019-06-15T13:45:08.413Z,29.00
2019-06-15T13:47:39.365Z,28.90
2019-06-15T13:50:10.579Z,28.90
2019-06-15T13:52:41.426Z,28.80
2019-06-15T13:55:13.733Z,28.70
2019-06-15T13:57:45.405Z,28.70
2019-06-15T14:00:17.833Z,28.60
2019-06-15T14:02:49.097Z,28.60
2019-06-15T14:05:20.202Z,28.60
2019-06-15T14:07:50.919Z,28.60
2019-06-15T14:10:21.752Z,28.50
2019-06-15T14:12:52.643Z,28.40
2019-06-15T14:15:23.211Z,28.40
2019-06-15T14:17:53.949Z,28.50
2019-06-15T14:20:24.879Z,28.40
2019-06-15T14:22:55.395Z,28.40
2019-06-15T14:25:26.160Z,28.30
2019-06-15T14:27:56.993Z,28.30
2019-06-15T14:30:27.971Z,28.30
2019-06-15T14:32:58.766Z,28.30
2019-06-15T14:35:29.562Z,28.20
2019-06-15T14:38:00.332Z,28.20
2019-06-15T14:40:31.194Z,28.20
2019-06-15T14:43:02.066Z,28.20
2019-06-15T14:45:32.873Z,28.30
2019-06-15T14:48:03.722Z,28.20
2019-06-15T14:50:34.576Z,28.20
2019-06-15T14:53:05.362Z,28.20
2019-06-15T14:55:36.749Z,28.20
2019-06-15T14:58:07.339Z,28.20
2019-06-15T15:00:38.195Z,28.20
2019-06-15T15:03:09.344Z,28.20
2019-06-15T15:05:39.999Z,28.10
2019-06-15T15:08:10.506Z,28.20
2019-06-15T15:10:40.998Z,28.10
2019-06-15T15:13:11.850Z,28.20
2019-06-15T15:15:42.774Z,28.10
2019-06-15T15:18:16.205Z,28.10
2019-06-15T15:20:46.157Z,28.10
2019-06-15T15:23:16.867Z,27.90
2019-06-15T15:25:47.826Z,28.00
2019-06-15T15:28:18.842Z,27.90
2019-06-15T15:30:49.595Z,27.90
2019-06-15T15:33:20.102Z,27.80
2019-06-15T15:35:51.029Z,27.80
2019-06-15T15:38:21.465Z,27.80
2019-06-15T15:40:52.556Z,27.70
2019-06-15T15:43:26.368Z,27.60
2019-06-15T15:45:57.561Z,27.60
2019-06-15T15:48:28.190Z,27.60
2019-06-15T15:51:00.929Z,27.50
2019-06-15T15:53:31.076Z,27.40
2019-06-15T15:56:01.860Z,27.40
2019-06-15T15:58:32.679Z,27.40
2019-06-15T16:01:03.545Z,27.40
2019-06-15T16:03:36.765Z,27.30
2019-06-15T16:06:06.743Z,27.30
2019-06-15T16:08:37.327Z,27.30
2019-06-15T16:11:08.093Z,27.20
2019-06-15T16:13:38.739Z,27.20
2019-06-15T16:18:47.131Z,27.10
2019-06-15T16:21:18.008Z,27.00
2019-06-15T16:23:48.774Z,27.00
2019-06-15T16:26:19.570Z,27.00
2019-06-15T16:28:50.481Z,27.00
2019-06-15T16:31:25.969Z,27.00
2019-06-15T16:33:53.602Z,27.00
2019-06-15T16:36:24.463Z,27.00
2019-06-15T16:38:55.710Z,27.00
2019-06-15T16:41:26.217Z,26.90
2019-06-15T16:43:57.126Z,26.90
2019-06-15T16:46:27.561Z,26.80
2019-06-15T16:48:58.139Z,26.80
2019-06-15T16:51:30.159Z,26.80
2019-06-15T16:54:00.736Z,26.90
2019-06-15T16:56:31.498Z,26.90
2019-06-15T16:59:02.148Z,26.90
2019-06-15T17:01:32.963Z,26.80
2019-06-15T17:04:05.983Z,26.80
2019-06-15T17:06:38.689Z,26.90
2019-06-15T17:09:08.838Z,26.80
2019-06-15T17:11:39.463Z,26.70
2019-06-15T17:14:10.418Z,26.70
2019-06-15T17:16:42.166Z,26.80
2019-06-15T17:19:13.061Z,26.70
2019-06-15T17:21:46.565Z,26.70
2019-06-15T17:24:17.295Z,26.70
2019-06-15T17:26:47.986Z,26.70
2019-06-15T17:29:18.844Z,26.60
2019-06-15T17:31:49.507Z,26.60
2019-06-15T17:34:20.149Z,26.60
2019-06-15T17:36:50.821Z,26.50
2019-06-15T17:39:21.303Z,26.50
2019-06-15T17:41:52.173Z,26.50
2019-06-15T17:44:23.347Z,26.50
2019-06-15T17:46:56.376Z,26.40
2019-06-15T17:49:27.058Z,26.30
2019-06-15T17:51:58.807Z,26.30
2019-06-15T17:54:29.626Z,26.30
2019-06-15T17:57:00.305Z,26.20
2019-06-15T17:59:30.970Z,26.20
2019-06-15T18:02:01.841Z,26.10
2019-06-15T18:04:37.088Z,26.10
2019-06-15T18:07:05.953Z,26.00
2019-06-15T18:09:36.868Z,26.00
2019-06-15T18:12:07.663Z,26.00
2019-06-15T18:14:38.456Z,25.90
2019-06-15T18:17:09.101Z,25.90
2019-06-15T18:19:40.139Z,25.90
2019-06-15T18:22:12.545Z,25.80
2019-06-15T18:24:43.134Z,25.80
2019-06-15T18:27:16.738Z,25.70
2019-06-15T18:29:46.564Z,25.70
2019-06-15T18:32:19.838Z,25.60
2019-06-15T18:34:50.443Z,25.50
2019-06-15T18:37:20.989Z,25.40
2019-06-15T18:39:51.774Z,25.30
2019-06-15T18:42:22.649Z,25.10
2019-06-15T18:44:53.423Z,25.10
2019-06-15T18:47:26.578Z,25.00
2019-06-15T18:49:56.435Z,24.90
2019-06-15T18:52:27.469Z,24.80
2019-06-15T18:54:58.101Z,24.80
2019-06-15T18:57:28.693Z,24.70
2019-06-15T18:59:59.701Z,24.70
2019-06-15T19:02:31.836Z,24.60
2019-06-15T19:05:02.404Z,24.60
2019-06-15T19:07:33.207Z,24.50
2019-06-15T19:10:07.019Z,24.40
2019-06-15T19:12:36.563Z,24.40
2019-06-15T19:15:07.566Z,24.30
2019-06-15T19:17:38.425Z,24.20
2019-06-15T19:20:09.458Z,24.10
2019-06-15T19:22:40.108Z,24.00
2019-06-15T19:25:11.112Z,24.00
2019-06-15T19:27:41.991Z,23.90
2019-06-15T19:30:12.897Z,23.90
2019-06-15T19:32:46.262Z,23.80
2019-06-15T19:35:36.530Z,23.80
2019-06-15T19:38:07.458Z,23.70
2019-06-15T19:40:38.258Z,23.60
2019-06-15T19:43:09.133Z,23.60
2019-06-15T19:45:39.938Z,23.50
2019-06-15T19:48:10.770Z,23.40
2019-06-15T19:50:41.598Z,23.40
2019-06-15T19:53:12.262Z,23.30
2019-06-15T19:55:42.978Z,23.30
2019-06-15T19:58:16.201Z,23.20
2019-06-15T20:00:46.744Z,23.20
2019-06-15T20:03:17.957Z,23.10
2019-06-15T20:05:48.803Z,23.00
2019-06-15T20:08:19.414Z,22.90
2019-06-15T20:10:50.047Z,22.90
2019-06-15T20:13:20.622Z,22.70
2019-06-15T20:15:51.405Z,22.70
2019-06-15T20:18:21.854Z,22.60
2019-06-15T20:20:52.357Z,22.50
2019-06-15T20:23:23.189Z,22.40
2019-06-15T20:25:55.866Z,22.30
2019-06-15T20:28:27.278Z,22.20
2019-06-15T20:30:58.139Z,22.10
2019-06-15T20:33:29.924Z,22.00
2019-06-15T20:36:00.453Z,21.90
2019-06-15T20:38:31.545Z,21.80
2019-06-15T20:41:02.186Z,21.70
2019-06-15T20:43:33.018Z,21.60
2019-06-15T20:46:03.719Z,21.50
2019-06-15T20:48:36.273Z,21.40
2019-06-15T20:51:10.177Z,21.30
2019-06-15T20:53:39.457Z,21.20
2019-06-15T20:56:09.874Z,21.10
2019-06-15T20:58:40.581Z,21.00
2019-06-15T21:01:11.328Z,21.00
2019-06-15T21:03:43.158Z,20.90
2019-06-15T21:06:16.707Z,20.80
2019-06-15T21:08:46.925Z,20.80
2019-06-15T21:11:17.921Z,20.70
2019-06-15T21:13:48.570Z,20.60
2019-06-15T21:16:19.596Z,20.60
2019-06-15T21:18:50.456Z,20.50
2019-06-15T21:21:21.306Z,20.50
2019-06-15T21:23:51.908Z,20.40
2019-06-15T21:26:22.477Z,20.40
2019-06-15T21:28:52.986Z,20.30
2019-06-15T21:31:26.039Z,20.20
2019-06-15T21:33:56.122Z,20.10
2019-06-15T21:36:26.606Z,20.10
2019-06-15T21:38:57.009Z,20.10
2019-06-15T21:41:27.414Z,20.00
2019-06-15T21:43:58.991Z,20.00
2019-06-15T21:46:29.398Z,19.90
2019-06-15T21:48:59.849Z,19.90
2019-06-15T21:51:30.274Z,19.90
2019-06-15T21:54:00.793Z,19.80
2019-06-15T21:56:31.325Z,19.70
2019-06-15T21:59:01.822Z,19.70
2019-06-15T22:01:37.237Z,19.60
2019-06-15T22:04:07.191Z,19.60
2019-06-15T22:06:37.890Z,19.50
2019-06-15T22:09:13.071Z,19.50
2019-06-15T22:11:46.942Z,19.40
2019-06-15T22:14:17.247Z,19.40
2019-06-15T22:16:48.056Z,19.40
2019-06-15T22:19:18.469Z,19.40
2019-06-15T22:21:49.105Z,19.30
2019-06-15T22:24:20.535Z,19.30
2019-06-15T22:26:51.155Z,19.30
2019-06-15T22:29:22.363Z,19.20
2019-06-15T22:31:55.946Z,19.20
2019-06-15T22:34:25.529Z,19.10
2019-06-15T22:36:57.521Z,19.10
2019-06-15T22:39:39.440Z,19.10
2019-06-15T22:42:09.965Z,19.00
2019-06-15T22:44:40.542Z,18.90
2019-06-15T22:47:11.265Z,18.90
2019-06-15T22:49:41.890Z,18.90
2019-06-15T22:52:12.341Z,18.80
2019-06-15T22:54:43.254Z,18.80
2019-06-15T22:57:13.669Z,18.70
2019-06-15T22:59:46.175Z,18.70
2019-06-15T23:02:16.837Z,18.60
2019-06-15T23:04:47.346Z,18.60
2019-06-15T23:07:17.763Z,18.50
2019-06-15T23:09:48.192Z,18.40
2019-06-15T23:12:18.597Z,18.40
2019-06-15T23:14:49.170Z,18.30
2019-06-15T23:17:19.603Z,18.30
2019-06-15T23:19:50.030Z,18.20
2019-06-15T23:22:20.439Z,18.20
2019-06-15T23:24:50.878Z,18.10
2019-06-15T23:27:21.297Z,18.10
2019-06-15T23:29:51.742Z,18.00
2019-06-15T23:32:22.290Z,18.00
2019-06-15T23:34:53.203Z,18.00
2019-06-15T23:37:23.778Z,17.90
2019-06-15T23:40:11.841Z,17.90
2019-06-15T23:42:42.318Z,17.90
2019-06-15T23:45:15.972Z,17.80
2019-06-15T23:47:46.803Z,17.90
2019-06-15T23:50:19.930Z,17.90
2019-06-15T23:52:50.442Z,17.90
2019-06-15T23:55:21.582Z,17.80
2019-06-15T23:57:52.007Z,17.80
